createdAt,value
2023-05-14T00:01:23.667Z,7.97
2023-05-14T00:06:25.279Z,9.90
2023-05-14T00:11:26.736Z,5.32
2023-05-14T00:16:28.203Z,8.05
2023-05-14T00:21:29.668Z,9.02
2023-05-14T00:26:31.116Z,7.22
2023-05-14T00:31:32.675Z,5.13
2023-05-14T00:36:34.186Z,6.10
2023-05-14T00:41:35.728Z,7.40
2023-05-14T00:46:37.294Z,8.93
2023-05-14T00:51:41.432Z,6.43
2023-05-14T00:56:45.320Z,7.05
2023-05-14T01:01:46.797Z,7.45
2023-05-14T01:07:09.471Z,8.40
2023-05-14T01:12:34.598Z,7.88
2023-05-14T01:17:42.671Z,7.97
2023-05-14T01:22:44.189Z,9.50
2023-05-14T01:28:05.844Z,7.32
2023-05-14T01:33:11.160Z,8.88
2023-05-14T01:38:14.974Z,7.95
2023-05-14T01:43:17.101Z,8.20
2023-05-14T01:48:18.913Z,7.93
2023-05-14T01:53:20.639Z,8.40
2023-05-14T01:58:22.223Z,8.13
2023-05-14T02:03:23.681Z,9.13
2023-05-14T02:08:25.282Z,8.38
2023-05-14T02:13:26.855Z,7.10
2023-05-14T02:18:28.275Z,7.25
2023-05-14T02:23:40.479Z,7.97
2023-05-14T02:28:42.838Z,6.78
2023-05-14T02:33:44.363Z,8.60
2023-05-14T02:38:45.884Z,8.82
2023-05-14T02:43:47.342Z,8.50
2023-05-14T02:48:49.144Z,8.63
2023-05-14T02:53:50.607Z,7.93
2023-05-14T02:58:52.188Z,7.78
2023-05-14T03:03:53.639Z,8.93
2023-05-14T03:08:55.121Z,12.10
2023-05-14T03:13:56.667Z,12.38
2023-05-14T03:18:58.163Z,6.05
2023-05-14T03:23:59.661Z,10.40
2023-05-14T03:29:02.101Z,8.90
2023-05-14T03:34:03.637Z,7.95
2023-05-14T03:39:06.964Z,8.23
2023-05-14T03:44:10.327Z,7.60
2023-05-14T03:49:11.914Z,11.77
2023-05-14T03:54:13.569Z,9.20
2023-05-14T03:59:15.102Z,9.35
2023-05-14T04:04:16.603Z,8.93
2023-05-14T04:09:18.069Z,8.98
2023-05-14T04:14:19.535Z,9.00
2023-05-14T04:19:21.006Z,10.07
2023-05-14T04:24:22.499Z,8.45
2023-05-14T04:29:23.925Z,9.32
2023-05-14T04:34:26.113Z,9.15
2023-05-14T04:39:27.534Z,10.02
2023-05-14T04:44:28.970Z,9.15
2023-05-14T04:49:30.924Z,9.50
2023-05-14T04:54:32.527Z,10.93
2023-05-14T04:59:34.028Z,12.05
2023-05-14T05:04:35.457Z,7.18
2023-05-14T05:09:36.879Z,10.50
2023-05-14T05:14:38.337Z,9.63
2023-05-14T05:19:43.875Z,11.95
2023-05-14T05:24:46.469Z,12.80
2023-05-14T05:29:48.473Z,11.45
2023-05-14T05:34:51.842Z,14.38
2023-05-14T05:39:53.961Z,16.98
2023-05-14T05:44:56.238Z,12.98
2023-05-14T05:49:57.734Z,20.08
2023-05-14T05:54:59.160Z,7.18
2023-05-14T06:00:01.036Z,13.13
2023-05-14T06:05:02.522Z,12.93
2023-05-14T06:10:04.751Z,11.57
2023-05-14T06:15:06.929Z,10.57
2023-05-14T06:20:08.969Z,9.13
2023-05-14T06:25:10.892Z,9.35
2023-05-14T06:30:13.019Z,9.95
2023-05-14T06:35:14.544Z,10.07
2023-05-14T06:40:16.103Z,11.50
2023-05-14T06:45:17.622Z,9.07
2023-05-14T06:50:19.352Z,9.43
2023-05-14T06:55:20.883Z,10.15
2023-05-14T07:00:22.783Z,11.20
2023-05-14T07:05:25.075Z,10.48
2023-05-14T07:10:26.723Z,9.18
2023-05-14T07:15:28.262Z,9.82
2023-05-14T07:20:29.708Z,10.07
2023-05-14T07:25:32.617Z,6.13
2023-05-14T07:30:34.060Z,8.88
2023-05-14T07:35:35.558Z,7.35
2023-05-14T07:40:36.990Z,7.72
2023-05-14T07:45:41.393Z,6.57
2023-05-14T07:50:43.001Z,6.78
2023-05-14T07:55:45.333Z,6.25
2023-05-14T08:00:46.794Z,6.22
2023-05-14T08:06:34.053Z,6.10
2023-05-14T08:11:36.516Z,5.43
2023-05-14T08:16:38.761Z,7.43
2023-05-14T08:21:40.260Z,6.20
2023-05-14T08:26:41.910Z,5.80
2023-05-14T08:31:43.491Z,7.57
2023-05-14T08:36:44.956Z,6.05
2023-05-14T08:41:46.571Z,5.05
2023-05-14T08:46:49.752Z,6.15
2023-05-14T08:51:51.343Z,6.22
2023-05-14T08:56:53.524Z,4.30
2023-05-14T09:01:56.649Z,4.65
2023-05-14T09:07:01.193Z,6.30
2023-05-14T09:12:02.772Z,5.00
2023-05-14T09:17:04.317Z,5.50
2023-05-14T09:22:09.289Z,5.78
2023-05-14T09:27:22.133Z,5.63
2023-05-14T09:32:23.583Z,4.90
2023-05-14T09:37:26.051Z,5.60
2023-05-14T09:42:27.986Z,5.35
2023-05-14T09:47:29.519Z,4.22
2023-05-14T09:52:31.197Z,4.32
2023-05-14T09:57:33.517Z,5.78
2023-05-14T10:02:41.076Z,4.00
2023-05-14T10:07:47.587Z,4.32
2023-05-14T10:12:53.513Z,4.15
2023-05-14T10:17:58.640Z,4.30
2023-05-14T10:23:01.018Z,4.35
2023-05-14T10:28:03.057Z,4.30
2023-05-14T10:33:16.538Z,5.20
2023-05-14T10:38:21.896Z,4.75
2023-05-14T10:43:26.934Z,4.15
2023-05-14T10:48:28.954Z,4.45
2023-05-14T10:53:35.800Z,6.13
2023-05-14T10:58:39.204Z,6.57
2023-05-14T11:03:46.175Z,3.65
2023-05-14T11:08:50.422Z,4.15
2023-05-14T11:13:53.597Z,7.13
2023-05-14T11:19:05.068Z,4.75
2023-05-14T11:24:07.406Z,6.22
2023-05-14T11:29:10.499Z,5.10
2023-05-14T11:34:11.962Z,5.22
2023-05-14T11:39:19.550Z,4.70
2023-05-14T11:44:21.146Z,4.28
2023-05-14T11:49:24.166Z,7.45
2023-05-14T11:54:27.535Z,4.82
2023-05-14T11:59:31.685Z,5.30
2023-05-14T12:04:33.300Z,5.85
2023-05-14T12:09:39.204Z,3.33
2023-05-14T12:14:42.667Z,7.07
2023-05-14T12:19:46.000Z,4.20
2023-05-14T12:24:58.130Z,5.72
2023-05-14T12:30:19.123Z,4.20
2023-05-14T12:35:22.901Z,4.30
2023-05-14T12:40:25.229Z,3.40
2023-05-14T12:45:26.958Z,4.05
2023-05-14T12:50:28.434Z,3.88
2023-05-14T12:55:29.992Z,3.80
2023-05-14T13:00:31.433Z,4.43
2023-05-14T13:05:33.276Z,3.47
2023-05-14T13:10:34.729Z,4.63
2023-05-14T13:15:36.162Z,4.80
2023-05-14T13:20:37.602Z,8.20
2023-05-14T13:25:39.164Z,3.42
2023-05-14T13:30:40.645Z,6.53
2023-05-14T13:35:42.086Z,3.90
2023-05-14T13:40:43.509Z,6.05
2023-05-14T13:45:44.949Z,3.55
2023-05-14T13:50:46.377Z,4.65
2023-05-14T13:55:49.290Z,4.15
2023-05-14T14:00:51.887Z,4.45
2023-05-14T14:05:53.357Z,4.90
2023-05-14T14:10:55.475Z,14.00
2023-05-14T14:15:57.317Z,3.92
2023-05-14T14:20:58.800Z,7.63
2023-05-14T14:26:07.105Z,10.10
2023-05-14T14:36:09.967Z,4.30
2023-05-14T14:41:11.468Z,5.25
2023-05-14T14:46:13.758Z,5.45
2023-05-14T14:51:15.356Z,5.43
2023-05-14T14:56:16.829Z,4.32
2023-05-14T15:01:18.472Z,4.40
2023-05-14T15:06:19.966Z,4.82
2023-05-14T15:11:21.999Z,4.63
2023-05-14T15:16:23.510Z,3.58
2023-05-14T15:21:25.035Z,5.38
2023-05-14T15:26:26.698Z,5.53
2023-05-14T15:31:28.259Z,3.15
2023-05-14T15:36:29.771Z,3.83
2023-05-14T15:41:31.493Z,4.28
2023-05-14T15:46:33.085Z,6.60
2023-05-14T15:51:34.813Z,5.57
2023-05-14T15:56:36.242Z,6.82
2023-05-14T16:01:37.759Z,7.25
2023-05-14T16:06:41.871Z,3.63
2023-05-14T16:11:43.303Z,3.63
2023-05-14T16:16:44.825Z,5.85
2023-05-14T16:21:46.300Z,6.18
2023-05-14T16:26:47.845Z,6.15
2023-05-14T16:31:49.556Z,6.00
2023-05-14T16:36:51.077Z,4.72
2023-05-14T16:41:52.598Z,3.90
2023-05-14T16:46:54.068Z,3.42
2023-05-14T16:51:55.605Z,6.40
2023-05-14T17:03:28.653Z,5.40
2023-05-14T17:08:33.382Z,4.63
2023-05-14T17:13:34.837Z,3.40
2023-05-14T17:18:36.330Z,3.67
2023-05-14T17:23:37.937Z,4.13
2023-05-14T17:28:39.592Z,5.45
2023-05-14T17:33:41.057Z,4.70
2023-05-14T17:38:42.485Z,4.28
2023-05-14T17:50:40.138Z,3.67
2023-05-14T17:55:43.578Z,4.63
2023-05-14T18:00:45.110Z,3.30
2023-05-14T18:05:46.559Z,3.28
2023-05-14T18:10:47.988Z,4.45
2023-05-14T18:15:51.539Z,3.45
2023-05-14T18:20:53.351Z,4.70
2023-05-14T18:25:54.833Z,4.13
2023-05-14T18:30:56.324Z,4.15
2023-05-14T18:35:57.976Z,4.00
2023-05-14T18:40:59.450Z,7.55
2023-05-14T18:46:00.975Z,3.50
2023-05-14T18:51:02.403Z,3.70
2023-05-14T18:56:04.239Z,3.75
2023-05-14T19:01:05.799Z,6.50
2023-05-14T19:06:07.570Z,4.63
2023-05-14T19:11:09.001Z,4.10
2023-05-14T19:16:11.133Z,4.55
2023-05-14T19:21:14.762Z,5.05
2023-05-14T19:26:16.215Z,5.63
2023-05-14T19:31:17.837Z,4.95
2023-05-14T19:36:20.376Z,5.72
2023-05-14T19:41:21.811Z,4.32
2023-05-14T19:46:23.314Z,5.22
2023-05-14T19:51:25.388Z,5.93
2023-05-14T19:56:27.760Z,6.90
2023-05-14T20:01:29.426Z,4.38
2023-05-14T20:06:32.028Z,4.72
2023-05-14T20:11:33.480Z,3.95
2023-05-14T20:16:34.918Z,3.63
2023-05-14T20:21:36.345Z,4.38
2023-05-14T20:26:37.790Z,3.25
2023-05-14T20:31:39.217Z,4.63
2023-05-14T20:36:41.749Z,3.97
2023-05-14T20:41:45.480Z,3.05
2023-05-14T20:46:47.050Z,3.55
2023-05-14T20:51:48.498Z,3.13
2023-05-14T20:56:50.335Z,3.17
2023-05-14T21:01:51.859Z,4.07
2023-05-14T21:06:53.970Z,2.88
2023-05-14T21:11:55.451Z,4.97
2023-05-14T21:16:56.925Z,4.68
2023-05-14T21:21:58.346Z,5.15
2023-05-14T21:26:59.793Z,4.20
2023-05-14T21:32:01.258Z,3.25
2023-05-14T21:37:03.437Z,4.32
2023-05-14T21:42:05.132Z,3.20
2023-05-14T21:47:07.678Z,4.00
2023-05-14T21:52:09.119Z,2.97
2023-05-14T21:57:10.578Z,3.20
2023-05-14T22:02:12.088Z,4.85
2023-05-14T22:07:13.641Z,4.00
2023-05-14T22:12:15.072Z,3.88
2023-05-14T22:17:16.622Z,3.60
2023-05-14T22:22:18.062Z,6.55
2023-05-14T22:27:19.589Z,5.05
2023-05-14T22:32:21.291Z,4.80
2023-05-14T22:37:22.732Z,5.05
2023-05-14T22:42:24.216Z,4.35
2023-05-14T22:47:26.384Z,4.13
2023-05-14T22:52:27.862Z,5.18
2023-05-14T22:57:29.414Z,4.60
2023-05-14T23:02:30.944Z,4.00
2023-05-14T23:07:32.508Z,7.80
2023-05-14T23:12:34.015Z,4.75
2023-05-14T23:17:35.514Z,4.47
2023-05-14T23:22:37.013Z,4.95
2023-05-14T23:27:38.506Z,3.35
2023-05-14T23:32:39.947Z,3.72
2023-05-14T23:37:46.944Z,6.50
2023-05-14T23:42:48.567Z,4.43
2023-05-14T23:47:50.134Z,3.97
2023-05-14T23:52:52.961Z,5.53
2023-05-14T23:57:54.398Z,5.32
